Forside
METAR-TAF:

METAR-TAF

Lufthavne :

Niamey, Niger

Breddekreds: 13-29N, længdekreds: 002-10E, højde: 223 m

Aktuelle vejr

Denne rapport blev lavet for 1 time og 3 minutter siden, kl. 23:00 UTC
Vind 7 kt fra sydsydvest
Temperatur 27°C
Fugtighed 79%
Tryk 1014 hPa
Sigt 10 km eller mere
ingen skyer under 1500m og ingen cumulonimbus

METAR: DRRN 162300Z 21007KT CAVOK 27/23 Q1014 NOSIG

Tid: 01:03 (00:03 UTC)

Vejrudsigter

Denne rapport blev lavet for 1 time og 3 minutter siden, kl. 23:00 UTC
Foreløbig gælder fra 17 på 00 UTC til 18 på 06 UTC
Vind 8 kt fra sydvest
Sigt 10 km eller mere
ingen skyer under 1500m og ingen cumulonimbus
Sandsynlighed 30% :
Midlertidig
fra 17 på 07 UTC til 17 på 12 UTC
Sigt: 4000 m
Nogle få skyer i en højde af 3000 ft, Cumulonimbus.
Sandsynlighed 30% :
Midlertidig
fra 17 på 14 UTC til 17 på 20 UTC
Sigt: 4000 m
Nogle få skyer i en højde af 3000 ft, Cumulonimbus.

TAF: DRRN 162300Z 1700/1806 22008KT CAVOK PROB30 TEMPO 1707/1712 4000 TSSHRA FEW030CB PROB30 TEMPO 1714/1720 4000 TSSHRA FEW030CB

Vejrobservationer og prognoser fra mere end 4000 lufthavne (METAR og TAF).

De gule og røde prikker repræsenterer de meteorologiske stationer.

Flyt musen over at se navnet på stationen.

Så klik over at se vejr observationer og prognoser.

At skifte det kort: Klik på de grønne knapper med et sort kors for at zoome ind; på den grønne knap med en bindestreg for at zoome ud; eller på de grønne pile for tilstødende kort.


METAR-TAF: